sensor_id;sensor_type;location;lat;lon;timestamp;P1;durP1;ratioP1;P2;durP2;ratioP2
29960;SDS011;16816;44.444;26.152;2022-12-08T00:04:57;174.73;;;35.75;;
29960;SDS011;16816;44.444;26.152;2022-12-08T00:10:33;193.10;;;38.38;;
29960;SDS011;16816;44.444;26.152;2022-12-08T00:15:54;164.52;;;33.80;;
29960;SDS011;16816;44.444;26.152;2022-12-08T00:21:03;174.10;;;35.40;;
29960;SDS011;16816;44.444;26.152;2022-12-08T00:26:07;168.10;;;34.22;;
29960;SDS011;16816;44.444;26.152;2022-12-08T00:31:11;175.25;;;35.53;;
29960;SDS011;16816;44.444;26.152;2022-12-08T00:36:17;170.00;;;35.85;;
29960;SDS011;16816;44.444;26.152;2022-12-08T00:41:22;176.68;;;36.25;;
29960;SDS011;16816;44.444;26.152;2022-12-08T00:46:40;180.93;;;37.90;;
29960;SDS011;16816;44.444;26.152;2022-12-08T00:51:45;175.93;;;36.42;;
29960;SDS011;16816;44.444;26.152;2022-12-08T00:56:49;179.20;;;37.33;;
29960;SDS011;16816;44.444;26.152;2022-12-08T01:01:54;176.48;;;37.85;;
29960;SDS011;16816;44.444;26.152;2022-12-08T01:06:59;187.82;;;39.08;;
29960;SDS011;16816;44.444;26.152;2022-12-08T01:12:04;116.55;;;27.80;;
29960;SDS011;16816;44.444;26.152;2022-12-08T01:17:08;171.93;;;36.15;;
29960;SDS011;16816;44.444;26.152;2022-12-08T01:22:13;181.95;;;38.17;;
29960;SDS011;16816;44.444;26.152;2022-12-08T01:27:17;119.35;;;28.67;;
29960;SDS011;16816;44.444;26.152;2022-12-08T01:32:21;194.10;;;41.08;;
29960;SDS011;16816;44.444;26.152;2022-12-08T01:37:26;190.40;;;39.83;;
29960;SDS011;16816;44.444;26.152;2022-12-08T01:42:32;222.52;;;44.47;;
29960;SDS011;16816;44.444;26.152;2022-12-08T01:47:37;189.05;;;40.42;;
29960;SDS011;16816;44.444;26.152;2022-12-08T01:52:45;220.40;;;44.67;;
29960;SDS011;16816;44.444;26.152;2022-12-08T01:57:51;201.35;;;43.22;;
29960;SDS011;16816;44.444;26.152;2022-12-08T02:02:59;195.68;;;42.50;;
29960;SDS011;16816;44.444;26.152;2022-12-08T02:08:07;222.02;;;44.10;;
29960;SDS011;16816;44.444;26.152;2022-12-08T02:13:13;203.40;;;42.85;;
29960;SDS011;16816;44.444;26.152;2022-12-08T02:18:21;221.50;;;44.70;;
29960;SDS011;16816;44.444;26.152;2022-12-08T02:23:39;187.20;;;39.58;;
29960;SDS011;16816;44.444;26.152;2022-12-08T02:28:57;193.05;;;41.30;;
29960;SDS011;16816;44.444;26.152;2022-12-08T02:34:22;191.40;;;39.25;;
29960;SDS011;16816;44.444;26.152;2022-12-08T02:39:32;201.80;;;41.63;;
29960;SDS011;16816;44.444;26.152;2022-12-08T02:44:40;191.30;;;39.90;;
29960;SDS011;16816;44.444;26.152;2022-12-08T02:49:49;193.23;;;40.13;;
29960;SDS011;16816;44.444;26.152;2022-12-08T02:54:54;202.50;;;41.63;;
29960;SDS011;16816;44.444;26.152;2022-12-08T03:00:04;207.52;;;42.47;;
29960;SDS011;16816;44.444;26.152;2022-12-08T03:05:16;195.88;;;40.47;;
29960;SDS011;16816;44.444;26.152;2022-12-08T03:10:26;192.82;;;39.53;;
29960;SDS011;16816;44.444;26.152;2022-12-08T03:15:33;194.77;;;41.70;;
29960;SDS011;16816;44.444;26.152;2022-12-08T03:20:39;184.82;;;38.78;;
29960;SDS011;16816;44.444;26.152;2022-12-08T03:25:45;196.50;;;42.97;;
29960;SDS011;16816;44.444;26.152;2022-12-08T03:30:52;196.55;;;42.00;;
29960;SDS011;16816;44.444;26.152;2022-12-08T03:35:59;205.02;;;41.08;;
29960;SDS011;16816;44.444;26.152;2022-12-08T03:41:04;212.63;;;44.42;;
29960;SDS011;16816;44.444;26.152;2022-12-08T03:46:21;196.77;;;42.70;;
29960;SDS011;16816;44.444;26.152;2022-12-08T03:51:26;195.35;;;42.92;;
29960;SDS011;16816;44.444;26.152;2022-12-08T03:56:30;123.13;;;30.70;;
29960;SDS011;16816;44.444;26.152;2022-12-08T04:06:41;211.10;;;45.15;;
29960;SDS011;16816;44.444;26.152;2022-12-08T04:11:45;195.18;;;42.17;;
29960;SDS011;16816;44.444;26.152;2022-12-08T04:16:48;193.30;;;42.85;;
29960;SDS011;16816;44.444;26.152;2022-12-08T04:21:54;203.13;;;43.67;;
29960;SDS011;16816;44.444;26.152;2022-12-08T04:26:58;209.15;;;45.58;;
29960;SDS011;16816;44.444;26.152;2022-12-08T04:32:02;219.02;;;49.22;;
29960;SDS011;16816;44.444;26.152;2022-12-08T04:37:07;211.02;;;47.65;;
29960;SDS011;16816;44.444;26.152;2022-12-08T04:42:11;143.80;;;36.05;;
29960;SDS011;16816;44.444;26.152;2022-12-08T04:47:15;205.95;;;45.55;;
29960;SDS011;16816;44.444;26.152;2022-12-08T04:52:20;208.55;;;47.05;;
29960;SDS011;16816;44.444;26.152;2022-12-08T04:57:24;213.98;;;49.15;;
29960;SDS011;16816;44.444;26.152;2022-12-08T05:02:28;217.73;;;48.50;;
29960;SDS011;16816;44.444;26.152;2022-12-08T05:07:35;236.73;;;53.47;;
29960;SDS011;16816;44.444;26.152;2022-12-08T05:12:39;213.55;;;48.30;;
29960;SDS011;16816;44.444;26.152;2022-12-08T05:17:43;220.30;;;50.20;;
29960;SDS011;16816;44.444;26.152;2022-12-08T05:22:48;214.00;;;48.42;;
29960;SDS011;16816;44.444;26.152;2022-12-08T05:27:52;159.70;;;40.00;;
29960;SDS011;16816;44.444;26.152;2022-12-08T05:33:12;218.98;;;51.30;;
29960;SDS011;16816;44.444;26.152;2022-12-08T05:38:18;221.63;;;51.55;;
29960;SDS011;16816;44.444;26.152;2022-12-08T05:43:22;160.40;;;39.75;;
29960;SDS011;16816;44.444;26.152;2022-12-08T05:48:25;220.23;;;51.65;;
29960;SDS011;16816;44.444;26.152;2022-12-08T05:53:31;228.73;;;54.78;;
29960;SDS011;16816;44.444;26.152;2022-12-08T05:58:35;228.02;;;54.67;;
29960;SDS011;16816;44.444;26.152;2022-12-08T06:03:39;219.68;;;51.58;;
29960;SDS011;16816;44.444;26.152;2022-12-08T06:08:44;237.68;;;60.22;;
29960;SDS011;16816;44.444;26.152;2022-12-08T06:13:48;182.30;;;45.75;;
29960;SDS011;16816;44.444;26.152;2022-12-08T06:18:52;220.10;;;53.70;;
29960;SDS011;16816;44.444;26.152;2022-12-08T06:23:58;238.60;;;53.47;;
29960;SDS011;16816;44.444;26.152;2022-12-08T06:29:02;227.65;;;56.50;;
29960;SDS011;16816;44.444;26.152;2022-12-08T06:34:06;227.30;;;54.00;;
29960;SDS011;16816;44.444;26.152;2022-12-08T06:39:11;224.32;;;53.45;;
29960;SDS011;16816;44.444;26.152;2022-12-08T06:44:15;185.52;;;48.05;;
29960;SDS011;16816;44.444;26.152;2022-12-08T06:49:19;223.57;;;55.22;;
29960;SDS011;16816;44.444;26.152;2022-12-08T06:54:24;219.48;;;52.05;;
29960;SDS011;16816;44.444;26.152;2022-12-08T06:59:28;214.57;;;51.33;;
29960;SDS011;16816;44.444;26.152;2022-12-08T07:04:32;229.50;;;54.83;;
29960;SDS011;16816;44.444;26.152;2022-12-08T07:09:38;248.70;;;59.65;;
29960;SDS011;16816;44.444;26.152;2022-12-08T07:14:41;216.98;;;52.63;;
29960;SDS011;16816;44.444;26.152;2022-12-08T07:19:45;220.68;;;52.58;;
29960;SDS011;16816;44.444;26.152;2022-12-08T07:24:51;247.02;;;59.08;;
29960;SDS011;16816;44.444;26.152;2022-12-08T07:29:54;220.47;;;56.13;;
29960;SDS011;16816;44.444;26.152;2022-12-08T07:34:58;235.23;;;56.15;;
29960;SDS011;16816;44.444;26.152;2022-12-08T07:40:04;223.57;;;53.60;;
29960;SDS011;16816;44.444;26.152;2022-12-08T07:45:09;225.85;;;54.97;;
29960;SDS011;16816;44.444;26.152;2022-12-08T07:50:13;230.35;;;54.20;;
29960;SDS011;16816;44.444;26.152;2022-12-08T07:55:18;222.05;;;54.38;;
29960;SDS011;16816;44.444;26.152;2022-12-08T08:00:22;199.60;;;50.30;;
29960;SDS011;16816;44.444;26.152;2022-12-08T08:05:27;247.82;;;60.90;;
29960;SDS011;16816;44.444;26.152;2022-12-08T08:10:32;224.50;;;54.97;;
29960;SDS011;16816;44.444;26.152;2022-12-08T08:15:36;229.57;;;57.38;;
29960;SDS011;16816;44.444;26.152;2022-12-08T08:20:40;238.30;;;56.72;;
29960;SDS011;16816;44.444;26.152;2022-12-08T08:25:45;240.82;;;57.30;;
29960;SDS011;16816;44.444;26.152;2022-12-08T08:30:49;236.73;;;56.05;;
29960;SDS011;16816;44.444;26.152;2022-12-08T08:35:53;222.38;;;54.08;;
29960;SDS011;16816;44.444;26.152;2022-12-08T08:40:59;224.10;;;54.72;;
29960;SDS011;16816;44.444;26.152;2022-12-08T08:46:04;236.75;;;56.38;;
29960;SDS011;16816;44.444;26.152;2022-12-08T08:51:11;223.40;;;53.42;;
29960;SDS011;16816;44.444;26.152;2022-12-08T08:56:18;217.90;;;52.67;;
29960;SDS011;16816;44.444;26.152;2022-12-08T09:01:23;220.02;;;52.33;;
29960;SDS011;16816;44.444;26.152;2022-12-08T09:06:27;231.20;;;53.47;;
29960;SDS011;16816;44.444;26.152;2022-12-08T09:11:33;218.80;;;51.90;;
29960;SDS011;16816;44.444;26.152;2022-12-08T09:16:37;209.85;;;48.67;;
29960;SDS011;16816;44.444;26.152;2022-12-08T09:21:43;197.35;;;46.75;;
29960;SDS011;16816;44.444;26.152;2022-12-08T09:26:49;201.90;;;46.08;;
29960;SDS011;16816;44.444;26.152;2022-12-08T09:31:53;202.15;;;44.95;;
29960;SDS011;16816;44.444;26.152;2022-12-08T09:36:57;195.68;;;42.58;;
29960;SDS011;16816;44.444;26.152;2022-12-08T09:42:03;187.82;;;40.65;;
29960;SDS011;16816;44.444;26.152;2022-12-08T09:47:12;191.20;;;40.90;;
29960;SDS011;16816;44.444;26.152;2022-12-08T09:52:20;192.23;;;39.67;;
29960;SDS011;16816;44.444;26.152;2022-12-08T09:57:28;184.63;;;37.45;;
29960;SDS011;16816;44.444;26.152;2022-12-08T10:02:33;178.25;;;35.10;;
29960;SDS011;16816;44.444;26.152;2022-12-08T10:07:37;168.88;;;31.95;;
29960;SDS011;16816;44.444;26.152;2022-12-08T10:12:48;116.70;;;23.60;;
29960;SDS011;16816;44.444;26.152;2022-12-08T10:17:55;118.03;;;21.80;;
29960;SDS011;16816;44.444;26.152;2022-12-08T10:23:03;86.05;;;17.73;;
29960;SDS011;16816;44.444;26.152;2022-12-08T10:28:12;47.83;;;13.05;;
29960;SDS011;16816;44.444;26.152;2022-12-08T10:33:17;60.88;;;14.77;;
29960;SDS011;16816;44.444;26.152;2022-12-08T10:43:30;36.58;;;11.93;;
29960;SDS011;16816;44.444;26.152;2022-12-08T10:48:34;112.95;;;20.63;;
29960;SDS011;16816;44.444;26.152;2022-12-08T10:53:43;114.40;;;20.33;;
29960;SDS011;16816;44.444;26.152;2022-12-08T10:58:49;15.05;;;9.13;;
29960;SDS011;16816;44.444;26.152;2022-12-08T11:04:10;55.25;;;13.95;;
29960;SDS011;16816;44.444;26.152;2022-12-08T11:09:23;112.05;;;19.80;;
29960;SDS011;16816;44.444;26.152;2022-12-08T11:14:37;169.02;;;25.85;;
29960;SDS011;16816;44.444;26.152;2022-12-08T11:19:54;86.20;;;17.17;;
29960;SDS011;16816;44.444;26.152;2022-12-08T11:25:00;11.60;;;8.50;;
29960;SDS011;16816;44.444;26.152;2022-12-08T11:30:11;69.93;;;15.63;;
29960;SDS011;16816;44.444;26.152;2022-12-08T11:35:18;67.22;;;14.90;;
29960;SDS011;16816;44.444;26.152;2022-12-08T11:40:27;181.82;;;25.27;;
29960;SDS011;16816;44.444;26.152;2022-12-08T11:45:34;132.70;;;21.05;;
29960;SDS011;16816;44.444;26.152;2022-12-08T11:50:40;176.02;;;25.70;;
29960;SDS011;16816;44.444;26.152;2022-12-08T11:55:46;151.88;;;23.70;;
29960;SDS011;16816;44.444;26.152;2022-12-08T12:00:54;180.43;;;26.00;;
29960;SDS011;16816;44.444;26.152;2022-12-08T12:11:26;172.18;;;25.95;;
29960;SDS011;16816;44.444;26.152;2022-12-08T12:16:58;142.83;;;22.47;;
29960;SDS011;16816;44.444;26.152;2022-12-08T12:22:07;177.13;;;25.83;;
29960;SDS011;16816;44.444;26.152;2022-12-08T12:27:19;135.13;;;22.90;;
29960;SDS011;16816;44.444;26.152;2022-12-08T12:32:38;168.57;;;25.48;;
29960;SDS011;16816;44.444;26.152;2022-12-08T12:37:43;133.18;;;22.17;;
29960;SDS011;16816;44.444;26.152;2022-12-08T12:48:23;144.73;;;22.67;;
29960;SDS011;16816;44.444;26.152;2022-12-08T12:58:49;168.60;;;26.17;;
29960;SDS011;16816;44.444;26.152;2022-12-08T13:04:03;136.98;;;23.63;;
29960;SDS011;16816;44.444;26.152;2022-12-08T13:09:18;129.27;;;22.02;;
29960;SDS011;16816;44.444;26.152;2022-12-08T13:14:28;191.95;;;26.23;;
29960;SDS011;16816;44.444;26.152;2022-12-08T13:19:35;133.82;;;22.00;;
29960;SDS011;16816;44.444;26.152;2022-12-08T13:24:41;82.93;;;17.17;;
29960;SDS011;16816;44.444;26.152;2022-12-08T13:29:45;166.13;;;24.15;;
29960;SDS011;16816;44.444;26.152;2022-12-08T13:35:29;120.25;;;20.70;;
29960;SDS011;16816;44.444;26.152;2022-12-08T13:40:33;195.50;;;25.90;;
29960;SDS011;16816;44.444;26.152;2022-12-08T13:45:39;109.75;;;19.95;;
29960;SDS011;16816;44.444;26.152;2022-12-08T13:51:08;96.00;;;18.25;;
29960;SDS011;16816;44.444;26.152;2022-12-08T13:56:35;165.88;;;24.40;;
29960;SDS011;16816;44.444;26.152;2022-12-08T14:02:03;148.43;;;23.00;;
29960;SDS011;16816;44.444;26.152;2022-12-08T14:07:14;176.00;;;26.38;;
29960;SDS011;16816;44.444;26.152;2022-12-08T14:12:19;34.15;;;12.27;;
29960;SDS011;16816;44.444;26.152;2022-12-08T14:17:25;172.43;;;24.80;;
29960;SDS011;16816;44.444;26.152;2022-12-08T14:22:33;148.73;;;23.70;;
29960;SDS011;16816;44.444;26.152;2022-12-08T14:27:39;96.43;;;19.08;;
29960;SDS011;16816;44.444;26.152;2022-12-08T14:32:43;115.25;;;19.95;;
29960;SDS011;16816;44.444;26.152;2022-12-08T14:37:51;160.32;;;24.42;;
29960;SDS011;16816;44.444;26.152;2022-12-08T14:43:04;206.15;;;28.02;;
29960;SDS011;16816;44.444;26.152;2022-12-08T14:48:19;174.85;;;27.60;;
29960;SDS011;16816;44.444;26.152;2022-12-08T14:53:25;218.77;;;30.02;;
29960;SDS011;16816;44.444;26.152;2022-12-08T14:58:32;177.95;;;26.73;;
29960;SDS011;16816;44.444;26.152;2022-12-08T15:03:36;195.15;;;27.80;;
29960;SDS011;16816;44.444;26.152;2022-12-08T15:08:51;120.05;;;21.10;;
29960;SDS011;16816;44.444;26.152;2022-12-08T15:13:57;121.80;;;20.75;;
29960;SDS011;16816;44.444;26.152;2022-12-08T15:19:03;88.78;;;18.10;;
29960;SDS011;16816;44.444;26.152;2022-12-08T15:24:15;106.43;;;20.02;;
29960;SDS011;16816;44.444;26.152;2022-12-08T15:29:21;160.32;;;26.25;;
29960;SDS011;16816;44.444;26.152;2022-12-08T15:34:26;173.55;;;27.33;;
29960;SDS011;16816;44.444;26.152;2022-12-08T15:39:32;149.77;;;24.88;;
29960;SDS011;16816;44.444;26.152;2022-12-08T15:44:38;169.45;;;26.38;;
29960;SDS011;16816;44.444;26.152;2022-12-08T15:49:42;203.65;;;32.10;;
29960;SDS011;16816;44.444;26.152;2022-12-08T15:54:48;145.95;;;25.25;;
29960;SDS011;16816;44.444;26.152;2022-12-08T15:59:52;140.52;;;24.50;;
29960;SDS011;16816;44.444;26.152;2022-12-08T16:04:56;140.73;;;24.55;;
29960;SDS011;16816;44.444;26.152;2022-12-08T16:10:22;142.65;;;25.10;;
29960;SDS011;16816;44.444;26.152;2022-12-08T16:15:33;168.98;;;28.08;;
29960;SDS011;16816;44.444;26.152;2022-12-08T16:20:58;161.55;;;27.75;;
29960;SDS011;16816;44.444;26.152;2022-12-08T16:26:23;122.35;;;23.45;;
29960;SDS011;16816;44.444;26.152;2022-12-08T16:31:48;7.67;;;6.97;;
29960;SDS011;16816;44.444;26.152;2022-12-08T16:36:53;123.07;;;22.93;;
29960;SDS011;16816;44.444;26.152;2022-12-08T16:41:58;146.27;;;26.55;;
29960;SDS011;16816;44.444;26.152;2022-12-08T16:47:19;174.93;;;30.58;;
29960;SDS011;16816;44.444;26.152;2022-12-08T16:52:23;172.88;;;29.52;;
29960;SDS011;16816;44.444;26.152;2022-12-08T16:57:28;149.95;;;27.10;;
29960;SDS011;16816;44.444;26.152;2022-12-08T17:02:33;172.82;;;30.35;;
29960;SDS011;16816;44.444;26.152;2022-12-08T17:07:37;161.82;;;29.08;;
29960;SDS011;16816;44.444;26.152;2022-12-08T17:12:43;192.60;;;35.00;;
29960;SDS011;16816;44.444;26.152;2022-12-08T17:17:47;182.05;;;32.80;;
29960;SDS011;16816;44.444;26.152;2022-12-08T17:22:52;163.00;;;30.20;;
29960;SDS011;16816;44.444;26.152;2022-12-08T17:27:57;104.90;;;23.90;;
29960;SDS011;16816;44.444;26.152;2022-12-08T17:33:01;199.57;;;35.85;;
29960;SDS011;16816;44.444;26.152;2022-12-08T17:38:05;155.80;;;31.20;;
29960;SDS011;16816;44.444;26.152;2022-12-08T17:43:11;186.23;;;35.15;;
29960;SDS011;16816;44.444;26.152;2022-12-08T17:53:18;176.63;;;34.72;;
29960;SDS011;16816;44.444;26.152;2022-12-08T17:58:24;174.23;;;34.25;;
29960;SDS011;16816;44.444;26.152;2022-12-08T18:03:28;217.10;;;39.85;;
29960;SDS011;16816;44.444;26.152;2022-12-08T18:08:32;202.80;;;38.42;;
29960;SDS011;16816;44.444;26.152;2022-12-08T18:13:37;190.02;;;37.90;;
29960;SDS011;16816;44.444;26.152;2022-12-08T18:18:41;113.53;;;27.67;;
29960;SDS011;16816;44.444;26.152;2022-12-08T18:23:45;188.57;;;38.67;;
29960;SDS011;16816;44.444;26.152;2022-12-08T18:28:50;194.60;;;40.45;;
29960;SDS011;16816;44.444;26.152;2022-12-08T18:33:54;191.18;;;39.25;;
29960;SDS011;16816;44.444;26.152;2022-12-08T18:38:58;207.45;;;42.60;;
29960;SDS011;16816;44.444;26.152;2022-12-08T18:44:11;192.45;;;40.95;;
29960;SDS011;16816;44.444;26.152;2022-12-08T18:49:16;189.40;;;40.53;;
29960;SDS011;16816;44.444;26.152;2022-12-08T18:54:21;184.48;;;39.45;;
29960;SDS011;16816;44.444;26.152;2022-12-08T18:59:47;204.38;;;41.55;;
29960;SDS011;16816;44.444;26.152;2022-12-08T19:04:53;202.25;;;43.63;;
29960;SDS011;16816;44.444;26.152;2022-12-08T19:09:57;210.70;;;45.03;;
29960;SDS011;16816;44.444;26.152;2022-12-08T19:15:03;197.63;;;43.38;;
29960;SDS011;16816;44.444;26.152;2022-12-08T19:20:08;231.43;;;47.90;;
29960;SDS011;16816;44.444;26.152;2022-12-08T19:25:13;185.65;;;41.58;;
29960;SDS011;16816;44.444;26.152;2022-12-08T19:30:18;222.65;;;45.88;;
29960;SDS011;16816;44.444;26.152;2022-12-08T19:35:22;196.88;;;44.15;;
29960;SDS011;16816;44.444;26.152;2022-12-08T19:40:26;198.23;;;43.13;;
29960;SDS011;16816;44.444;26.152;2022-12-08T19:45:49;196.82;;;44.55;;
29960;SDS011;16816;44.444;26.152;2022-12-08T19:50:53;233.23;;;51.33;;
29960;SDS011;16816;44.444;26.152;2022-12-08T19:55:57;210.88;;;48.17;;
29960;SDS011;16816;44.444;26.152;2022-12-08T20:01:02;201.60;;;46.30;;
29960;SDS011;16816;44.444;26.152;2022-12-08T20:06:10;217.07;;;50.22;;
29960;SDS011;16816;44.444;26.152;2022-12-08T20:11:15;216.93;;;50.15;;
29960;SDS011;16816;44.444;26.152;2022-12-08T20:16:21;217.30;;;50.40;;
29960;SDS011;16816;44.444;26.152;2022-12-08T20:21:25;212.02;;;49.63;;
29960;SDS011;16816;44.444;26.152;2022-12-08T20:26:29;215.50;;;49.78;;
29960;SDS011;16816;44.444;26.152;2022-12-08T20:31:35;216.38;;;49.63;;
29960;SDS011;16816;44.444;26.152;2022-12-08T20:36:39;207.25;;;48.55;;
29960;SDS011;16816;44.444;26.152;2022-12-08T20:41:43;220.25;;;50.30;;
29960;SDS011;16816;44.444;26.152;2022-12-08T20:46:49;214.23;;;49.35;;
29960;SDS011;16816;44.444;26.152;2022-12-08T20:51:53;200.15;;;47.45;;
29960;SDS011;16816;44.444;26.152;2022-12-08T20:56:58;218.35;;;50.88;;
29960;SDS011;16816;44.444;26.152;2022-12-08T21:02:03;207.25;;;49.13;;
29960;SDS011;16816;44.444;26.152;2022-12-08T21:07:07;206.63;;;48.13;;
29960;SDS011;16816;44.444;26.152;2022-12-08T21:12:12;212.50;;;48.10;;
29960;SDS011;16816;44.444;26.152;2022-12-08T21:17:17;221.10;;;51.17;;
29960;SDS011;16816;44.444;26.152;2022-12-08T21:22:21;208.82;;;49.17;;
29960;SDS011;16816;44.444;26.152;2022-12-08T21:27:25;210.00;;;48.72;;
29960;SDS011;16816;44.444;26.152;2022-12-08T21:32:31;207.82;;;47.63;;
29960;SDS011;16816;44.444;26.152;2022-12-08T21:37:35;206.98;;;46.85;;
29960;SDS011;16816;44.444;26.152;2022-12-08T21:42:39;211.07;;;48.00;;
29960;SDS011;16816;44.444;26.152;2022-12-08T21:47:47;212.85;;;50.45;;
29960;SDS011;16816;44.444;26.152;2022-12-08T21:52:52;213.90;;;49.15;;
29960;SDS011;16816;44.444;26.152;2022-12-08T21:57:56;205.05;;;47.63;;
29960;SDS011;16816;44.444;26.152;2022-12-08T22:13:12;208.00;;;46.33;;
29960;SDS011;16816;44.444;26.152;2022-12-08T22:18:18;201.63;;;46.05;;
29960;SDS011;16816;44.444;26.152;2022-12-08T22:23:22;192.40;;;44.80;;
29960;SDS011;16816;44.444;26.152;2022-12-08T22:28:28;204.10;;;47.00;;
29960;SDS011;16816;44.444;26.152;2022-12-08T22:33:36;209.57;;;46.63;;
29960;SDS011;16816;44.444;26.152;2022-12-08T22:38:40;210.65;;;48.58;;
29960;SDS011;16816;44.444;26.152;2022-12-08T22:43:44;223.55;;;49.88;;
29960;SDS011;16816;44.444;26.152;2022-12-08T22:48:50;216.48;;;50.42;;
29960;SDS011;16816;44.444;26.152;2022-12-08T22:53:54;229.38;;;57.78;;
29960;SDS011;16816;44.444;26.152;2022-12-08T22:58:58;280.38;;;74.85;;
29960;SDS011;16816;44.444;26.152;2022-12-08T23:04:03;228.40;;;54.85;;
29960;SDS011;16816;44.444;26.152;2022-12-08T23:09:12;261.65;;;68.80;;
29960;SDS011;16816;44.444;26.152;2022-12-08T23:14:16;242.25;;;55.15;;
29960;SDS011;16816;44.444;26.152;2022-12-08T23:19:21;226.40;;;54.60;;
29960;SDS011;16816;44.444;26.152;2022-12-08T23:24:25;226.15;;;54.88;;
29960;SDS011;16816;44.444;26.152;2022-12-08T23:29:29;272.50;;;80.93;;
29960;SDS011;16816;44.444;26.152;2022-12-08T23:34:34;215.98;;;50.97;;
29960;SDS011;16816;44.444;26.152;2022-12-08T23:39:39;205.77;;;47.70;;
29960;SDS011;16816;44.444;26.152;2022-12-08T23:44:43;217.45;;;50.60;;
29960;SDS011;16816;44.444;26.152;2022-12-08T23:49:48;212.60;;;48.55;;
29960;SDS011;16816;44.444;26.152;2022-12-08T23:54:52;179.80;;;43.42;;
29960;SDS011;16816;44.444;26.152;2022-12-08T23:59:56;215.57;;;49.17;;
